createdAt,value
2023-11-17T00:02:03.311Z,80.38
2023-11-17T00:04:31.435Z,80.41
2023-11-17T00:06:59.891Z,81.00
2023-11-17T00:09:27.883Z,81.08
2023-11-17T00:11:56.980Z,79.62
2023-11-17T00:14:24.737Z,80.92
2023-11-17T00:16:52.735Z,80.86
2023-11-17T00:19:20.673Z,79.66
2023-11-17T00:21:48.857Z,78.73
2023-11-17T00:24:16.595Z,79.60
2023-11-17T00:26:45.669Z,79.85
2023-11-17T00:29:23.554Z,79.87
2023-11-17T00:31:51.194Z,80.13
2023-11-17T00:34:18.982Z,79.29
2023-11-17T00:36:48.041Z,79.04
2023-11-17T00:39:16.566Z,79.40
2023-11-17T00:41:44.993Z,78.15
2023-11-17T00:44:12.900Z,78.91
2023-11-17T00:46:42.075Z,78.27
2023-11-17T00:49:10.556Z,79.45
2023-11-17T00:51:38.238Z,78.91
2023-11-17T00:54:06.158Z,80.68
2023-11-17T00:56:34.358Z,79.06
2023-11-17T00:59:02.683Z,78.05
2023-11-17T01:01:30.817Z,78.61
2023-11-17T01:04:00.012Z,79.59
2023-11-17T01:06:27.678Z,81.84
2023-11-17T01:08:55.437Z,81.42
2023-11-17T01:11:23.085Z,82.55
2023-11-17T01:13:50.719Z,80.09
2023-11-17T01:16:18.827Z,80.53
2023-11-17T01:18:46.527Z,81.00
2023-11-17T01:21:15.575Z,81.80
2023-11-17T01:23:43.278Z,81.47
2023-11-17T01:26:10.983Z,80.09
2023-11-17T01:28:38.627Z,79.17
2023-11-17T01:31:06.475Z,79.43
2023-11-17T01:33:34.168Z,79.96
2023-11-17T01:36:01.827Z,80.74
2023-11-17T01:38:33.973Z,79.32
2023-11-17T01:41:05.489Z,78.53
2023-11-17T01:43:33.117Z,79.59
2023-11-17T01:46:01.757Z,79.32
2023-11-17T01:48:29.528Z,77.44
2023-11-17T01:50:58.341Z,78.31
2023-11-17T01:53:26.103Z,78.87
2023-11-17T01:55:55.110Z,80.54
2023-11-17T01:58:25.413Z,78.57
2023-11-17T02:00:53.212Z,79.83
2023-11-17T02:03:21.498Z,79.78
2023-11-17T02:05:53.172Z,78.99
2023-11-17T02:08:29.623Z,78.86
2023-11-17T02:11:09.595Z,78.74
2023-11-17T02:13:41.291Z,79.31
2023-11-17T02:16:12.334Z,77.94
2023-11-17T02:18:43.743Z,78.22
2023-11-17T02:21:18.834Z,76.65
2023-11-17T02:23:49.536Z,79.23
2023-11-17T02:26:26.301Z,77.69
2023-11-17T02:29:00.560Z,78.67
2023-11-17T02:31:34.011Z,78.87
2023-11-17T02:34:04.775Z,80.15
2023-11-17T02:36:34.109Z,80.64
2023-11-17T02:39:14.403Z,79.94
2023-11-17T02:41:49.634Z,78.70
2023-11-17T02:44:18.362Z,79.27
2023-11-17T02:46:47.853Z,78.31
2023-11-17T02:49:23.878Z,78.96
2023-11-17T02:51:53.247Z,78.24
2023-11-17T02:54:23.735Z,78.63
2023-11-17T02:56:52.889Z,80.56
2023-11-17T02:59:21.079Z,80.20
2023-11-17T03:01:52.205Z,79.29
2023-11-17T03:04:20.558Z,79.73
2023-11-17T03:06:50.212Z,79.98
2023-11-17T03:09:23.162Z,79.98
2023-11-17T03:11:51.602Z,79.30
2023-11-17T03:14:19.313Z,79.71
2023-11-17T03:16:50.263Z,79.65
2023-11-17T03:19:19.425Z,78.76
2023-11-17T03:21:47.590Z,80.77
2023-11-17T03:24:18.697Z,79.64
2023-11-17T03:26:47.139Z,79.18
2023-11-17T03:29:16.008Z,78.78
2023-11-17T03:31:49.389Z,80.84
2023-11-17T03:34:24.374Z,79.40
2023-11-17T03:36:57.823Z,78.93
2023-11-17T03:39:26.031Z,78.38
2023-11-17T03:41:53.989Z,80.75
2023-11-17T03:44:25.349Z,80.26
2023-11-17T03:46:53.464Z,80.60
2023-11-17T03:49:23.184Z,79.31
2023-11-17T03:51:53.007Z,79.25
2023-11-17T03:54:22.591Z,79.70
2023-11-17T03:56:50.653Z,79.59
2023-11-17T03:59:20.171Z,79.03
2023-11-17T04:01:48.366Z,79.35
2023-11-17T04:04:18.824Z,79.39
2023-11-17T04:06:50.769Z,80.04
2023-11-17T04:09:22.303Z,79.30
2023-11-17T04:11:51.929Z,79.48
2023-11-17T04:14:22.758Z,79.60
2023-11-17T04:16:51.328Z,80.10
2023-11-17T04:19:21.142Z,80.27
2023-11-17T04:21:51.188Z,80.91
2023-11-17T04:24:19.234Z,80.06
2023-11-17T04:26:47.555Z,79.84
2023-11-17T04:29:15.528Z,79.25
2023-11-17T04:31:43.433Z,82.07
2023-11-17T04:34:12.675Z,79.42
2023-11-17T04:36:40.597Z,80.30
2023-11-17T04:39:18.152Z,81.19
2023-11-17T04:41:45.904Z,80.26
2023-11-17T04:44:14.305Z,80.00
2023-11-17T04:46:42.300Z,80.63
2023-11-17T04:49:10.072Z,81.87
2023-11-17T04:51:37.731Z,80.16
2023-11-17T04:54:05.536Z,80.74
2023-11-17T04:56:34.612Z,80.22
2023-11-17T04:59:03.425Z,80.24
2023-11-17T05:01:31.148Z,80.92
2023-11-17T05:04:01.336Z,81.81
2023-11-17T05:06:29.104Z,81.37
2023-11-17T05:08:56.753Z,81.69
2023-11-17T05:11:25.614Z,80.97
2023-11-17T05:13:54.676Z,79.06
2023-11-17T05:16:22.438Z,79.39
2023-11-17T05:18:50.282Z,78.64
2023-11-17T05:21:18.271Z,79.62
2023-11-17T05:23:45.934Z,79.02
2023-11-17T05:26:13.851Z,78.52
2023-11-17T05:28:41.631Z,80.49
2023-11-17T05:31:11.047Z,80.55
2023-11-17T05:33:40.697Z,79.73
2023-11-17T05:36:10.356Z,79.93
2023-11-17T05:38:39.423Z,80.11
2023-11-17T05:41:07.304Z,80.63
2023-11-17T05:43:34.983Z,79.52
2023-11-17T05:46:03.785Z,79.82
2023-11-17T05:48:33.040Z,78.87
2023-11-17T05:51:00.664Z,77.48
2023-11-17T05:53:28.671Z,76.38
2023-11-17T05:55:56.404Z,76.69
2023-11-17T05:58:24.237Z,76.85
2023-11-17T06:00:51.955Z,77.57
2023-11-17T06:03:19.672Z,78.66
2023-11-17T06:05:48.729Z,78.10
2023-11-17T06:08:16.419Z,78.49
2023-11-17T06:10:44.289Z,78.83
2023-11-17T06:13:15.595Z,76.95
2023-11-17T06:15:43.451Z,77.83
2023-11-17T06:18:13.374Z,78.04
2023-11-17T06:20:41.858Z,77.78
2023-11-17T06:23:10.943Z,77.14
2023-11-17T06:25:38.669Z,77.15
2023-11-17T06:28:06.502Z,77.68
2023-11-17T06:30:34.147Z,77.20
2023-11-17T06:33:01.827Z,76.54
2023-11-17T06:35:29.864Z,77.01
2023-11-17T06:37:57.544Z,76.80
2023-11-17T06:40:26.590Z,77.25
2023-11-17T06:42:54.314Z,77.12
2023-11-17T06:45:22.744Z,77.61
2023-11-17T06:47:52.667Z,78.23
2023-11-17T06:50:21.287Z,76.72
2023-11-17T06:52:48.985Z,76.14
2023-11-17T06:55:16.797Z,77.47
2023-11-17T06:57:47.700Z,76.10
2023-11-17T07:00:15.992Z,76.31
2023-11-17T07:02:43.865Z,77.04
2023-11-17T07:05:12.205Z,77.81
2023-11-17T07:07:40.765Z,77.14
2023-11-17T07:10:15.705Z,77.93
2023-11-17T07:12:46.103Z,80.33
2023-11-17T07:15:14.711Z,79.43
2023-11-17T07:17:44.058Z,78.07
2023-11-17T07:20:13.051Z,80.32
2023-11-17T07:22:41.042Z,78.77
2023-11-17T07:25:12.542Z,77.77
2023-11-17T07:27:41.156Z,78.38
2023-11-17T07:30:13.723Z,78.65
2023-11-17T07:32:41.610Z,77.26
2023-11-17T07:35:09.990Z,77.30
2023-11-17T07:37:37.679Z,76.68
2023-11-17T07:40:06.917Z,77.83
2023-11-17T07:42:34.848Z,78.51
2023-11-17T07:45:04.719Z,77.99
2023-11-17T07:47:35.105Z,77.04
2023-11-17T07:50:05.089Z,77.53
2023-11-17T07:52:32.771Z,76.15
2023-11-17T07:55:01.077Z,75.86
2023-11-17T07:57:28.792Z,69.79
2023-11-17T07:59:56.478Z,65.30
2023-11-17T08:02:24.148Z,61.07
2023-11-17T08:04:53.350Z,59.24
2023-11-17T08:07:21.372Z,60.62
2023-11-17T08:09:49.244Z,61.23
2023-11-17T08:12:16.931Z,62.82
2023-11-17T08:14:45.005Z,61.46
2023-11-17T08:17:12.737Z,60.78
2023-11-17T08:19:41.722Z,55.74
2023-11-17T08:22:10.980Z,53.78
2023-11-17T08:24:38.791Z,52.10
2023-11-17T08:27:06.959Z,54.20
2023-11-17T08:29:34.624Z,55.50
2023-11-17T08:32:02.848Z,61.78
2023-11-17T08:34:32.686Z,64.14
2023-11-17T08:37:00.451Z,66.79
2023-11-17T08:39:29.489Z,68.49
2023-11-17T08:41:58.096Z,71.66
2023-11-17T08:44:27.009Z,73.11
2023-11-17T08:46:54.960Z,72.29
2023-11-17T08:49:23.147Z,74.03
2023-11-17T08:51:50.961Z,74.90
2023-11-17T08:54:18.976Z,73.80
2023-11-17T08:56:48.514Z,73.10
2023-11-17T08:59:16.569Z,75.63
2023-11-17T09:01:44.920Z,77.06
2023-11-17T09:04:13.411Z,75.57
2023-11-17T09:06:41.562Z,75.59
2023-11-17T09:09:24.108Z,76.45
2023-11-17T09:12:01.771Z,76.11
2023-11-17T09:14:32.630Z,75.93
2023-11-17T09:17:04.158Z,74.60
2023-11-17T09:19:34.785Z,76.06
2023-11-17T09:22:02.512Z,77.11
2023-11-17T09:24:30.250Z,78.60
2023-11-17T09:26:59.229Z,77.73
2023-11-17T09:29:29.372Z,76.14
2023-11-17T09:31:57.083Z,75.38
2023-11-17T09:34:25.109Z,75.66
2023-11-17T09:36:53.012Z,74.59
2023-11-17T09:39:21.283Z,76.02
2023-11-17T09:41:52.894Z,78.55
2023-11-17T09:44:28.133Z,77.72
2023-11-17T09:47:09.112Z,79.15
2023-11-17T09:49:39.731Z,79.29
2023-11-17T09:52:08.024Z,79.13
2023-11-17T09:54:37.623Z,79.24
2023-11-17T09:57:07.531Z,78.52
2023-11-17T09:59:37.415Z,79.21
2023-11-17T10:02:07.556Z,79.02
2023-11-17T10:04:35.830Z,77.76
2023-11-17T10:07:05.134Z,77.86
2023-11-17T10:09:34.077Z,77.30
2023-11-17T10:12:02.656Z,78.39
2023-11-17T10:14:33.200Z,77.33
2023-11-17T10:17:05.599Z,78.46
2023-11-17T10:19:35.406Z,78.19
2023-11-17T10:22:08.198Z,77.25
2023-11-17T10:24:36.116Z,77.65
2023-11-17T10:27:04.326Z,78.53
2023-11-17T10:29:31.978Z,80.45
2023-11-17T10:32:22.564Z,79.76
2023-11-17T10:35:14.190Z,78.45
2023-11-17T10:37:42.132Z,78.90
2023-11-17T10:40:13.415Z,77.98
2023-11-17T10:42:41.644Z,77.93
2023-11-17T10:45:19.236Z,77.34
2023-11-17T10:47:49.162Z,77.00
2023-11-17T10:50:18.892Z,77.28
2023-11-17T10:52:47.715Z,77.33
2023-11-17T10:55:17.116Z,76.98
2023-11-17T10:58:05.724Z,78.24
2023-11-17T11:00:35.085Z,77.59
2023-11-17T11:03:04.643Z,78.30
2023-11-17T11:05:33.272Z,79.03
2023-11-17T11:08:02.984Z,78.44
2023-11-17T11:10:30.749Z,78.39
2023-11-17T11:13:03.050Z,77.52
2023-11-17T11:15:31.286Z,77.37
2023-11-17T11:18:04.507Z,77.43
2023-11-17T11:20:34.145Z,77.53
2023-11-17T11:23:03.557Z,78.76
2023-11-17T11:25:32.339Z,78.73
2023-11-17T11:28:04.280Z,77.18
2023-11-17T11:30:34.551Z,76.65
2023-11-17T11:33:02.390Z,76.93
2023-11-17T11:35:30.514Z,78.38
2023-11-17T11:37:59.528Z,76.90
2023-11-17T11:40:27.875Z,77.85
2023-11-17T11:42:55.804Z,76.99
2023-11-17T11:45:25.468Z,76.27
2023-11-17T11:47:58.563Z,75.86
2023-11-17T11:50:27.042Z,75.76
2023-11-17T11:53:18.639Z,75.31
2023-11-17T11:55:46.465Z,76.91
2023-11-17T11:58:14.279Z,77.06
2023-11-17T12:00:46.824Z,77.63
2023-11-17T12:03:15.831Z,75.99
2023-11-17T12:05:45.759Z,74.97
2023-11-17T12:08:28.439Z,76.28
2023-11-17T12:11:05.390Z,76.82
2023-11-17T12:13:44.778Z,75.49
2023-11-17T12:16:15.461Z,74.19
2023-11-17T12:18:47.488Z,73.92
2023-11-17T12:21:20.103Z,74.47
2023-11-17T12:23:56.215Z,75.78
2023-11-17T12:26:26.432Z,75.12
2023-11-17T12:28:55.787Z,74.16
2023-11-17T12:31:25.344Z,73.63
2023-11-17T12:33:55.463Z,73.81
2023-11-17T12:36:24.739Z,74.37
2023-11-17T12:38:55.021Z,75.00
2023-11-17T12:41:28.065Z,75.37
2023-11-17T12:43:57.160Z,75.27
2023-11-17T12:46:26.662Z,74.81
2023-11-17T12:48:55.268Z,75.45
2023-11-17T12:51:27.445Z,75.65
2023-11-17T12:53:58.418Z,74.72
2023-11-17T12:56:27.231Z,74.36
2023-11-17T12:58:55.687Z,74.79
2023-11-17T13:01:25.708Z,74.18
2023-11-17T13:03:57.419Z,74.79
2023-11-17T13:06:28.138Z,76.20
2023-11-17T13:08:57.276Z,75.43
2023-11-17T13:11:30.057Z,76.88
2023-11-17T13:13:57.771Z,76.62
2023-11-17T13:16:30.135Z,75.33
2023-11-17T13:19:00.209Z,76.00
2023-11-17T13:21:27.199Z,74.94
2023-11-17T13:23:55.975Z,75.20
2023-11-17T13:26:28.818Z,75.48
2023-11-17T13:28:57.756Z,74.66
2023-11-17T13:31:28.864Z,76.27
2023-11-17T13:33:58.544Z,76.61
2023-11-17T13:36:28.958Z,74.69
2023-11-17T13:39:00.323Z,75.20
2023-11-17T13:41:34.575Z,75.16
2023-11-17T13:44:14.502Z,74.93
2023-11-17T13:46:50.787Z,75.60
2023-11-17T13:49:20.914Z,75.45
2023-11-17T13:51:53.304Z,73.99
2023-11-17T13:54:21.574Z,75.29
2023-11-17T13:56:51.444Z,74.97
2023-11-17T13:59:21.234Z,73.86
2023-11-17T14:01:54.309Z,73.29
2023-11-17T14:04:25.309Z,74.06
2023-11-17T14:06:56.387Z,74.18
2023-11-17T14:09:25.223Z,74.00
2023-11-17T14:11:55.666Z,74.23
2023-11-17T14:14:23.722Z,74.80
2023-11-17T14:16:51.457Z,74.29
2023-11-17T14:19:20.286Z,74.53
2023-11-17T14:21:48.691Z,76.07
2023-11-17T14:24:17.501Z,76.02
2023-11-17T14:26:45.368Z,75.85
2023-11-17T14:29:15.301Z,76.45
2023-11-17T14:31:44.473Z,75.18
2023-11-17T14:34:14.275Z,77.17
2023-11-17T14:36:42.042Z,77.09
2023-11-17T14:39:10.899Z,78.04
2023-11-17T14:41:37.730Z,77.58
2023-11-17T14:44:06.496Z,77.99
2023-11-17T14:46:35.844Z,77.48
2023-11-17T14:49:05.806Z,76.82
2023-11-17T14:51:33.526Z,77.38
2023-11-17T14:54:01.221Z,75.05
2023-11-17T14:56:29.432Z,74.44
2023-11-17T14:58:59.709Z,74.92
2023-11-17T15:01:28.590Z,73.37
2023-11-17T15:03:57.912Z,73.07
2023-11-17T15:06:26.021Z,72.86
2023-11-17T15:08:55.173Z,74.16
2023-11-17T15:11:24.842Z,73.39
2023-11-17T15:13:55.168Z,72.84
2023-11-17T15:16:28.765Z,75.96
2023-11-17T15:18:59.946Z,73.76
2023-11-17T15:21:33.005Z,75.52
2023-11-17T15:24:00.790Z,73.73
2023-11-17T15:26:28.608Z,74.01
2023-11-17T15:28:56.681Z,73.69
2023-11-17T15:31:25.646Z,74.01
2023-11-17T15:33:54.452Z,73.50
2023-11-17T15:36:26.485Z,75.37
2023-11-17T15:38:59.408Z,74.11
2023-11-17T15:41:32.444Z,75.23
2023-11-17T15:44:00.505Z,76.54
2023-11-17T15:46:28.355Z,75.61
2023-11-17T15:48:58.594Z,75.77
2023-11-17T15:51:30.065Z,75.91
2023-11-17T15:53:58.080Z,75.54
2023-11-17T15:56:26.248Z,74.80
2023-11-17T15:58:58.839Z,74.61
2023-11-17T16:01:26.612Z,74.28
2023-11-17T16:03:55.218Z,75.17
2023-11-17T16:06:24.375Z,75.29
2023-11-17T16:08:53.772Z,74.58
2023-11-17T16:11:21.439Z,75.18
2023-11-17T16:13:50.246Z,76.23
2023-11-17T16:16:20.090Z,75.21
2023-11-17T16:18:48.920Z,74.72
2023-11-17T16:21:19.011Z,75.44
2023-11-17T16:23:48.341Z,74.88
2023-11-17T16:26:17.585Z,76.04
2023-11-17T16:28:45.358Z,75.52
2023-11-17T16:31:13.535Z,75.75
2023-11-17T16:33:43.538Z,76.75
2023-11-17T16:36:14.384Z,78.09
2023-11-17T16:38:44.324Z,76.84
2023-11-17T16:41:12.069Z,77.68
2023-11-17T16:43:41.082Z,76.88
2023-11-17T16:46:12.053Z,75.82
2023-11-17T16:48:41.175Z,75.16
2023-11-17T16:51:09.802Z,75.26
2023-11-17T16:53:38.565Z,74.88
2023-11-17T16:56:08.570Z,75.03
2023-11-17T16:58:36.547Z,75.15
2023-11-17T17:01:06.403Z,75.74
2023-11-17T17:03:35.869Z,76.23
2023-11-17T17:06:03.706Z,75.40
2023-11-17T17:08:32.215Z,76.65
2023-11-17T17:11:00.289Z,75.22
2023-11-17T17:13:28.066Z,76.23
2023-11-17T17:15:55.769Z,76.49
2023-11-17T17:18:25.746Z,76.86
2023-11-17T17:20:53.624Z,76.31
2023-11-17T17:23:23.818Z,77.16
2023-11-17T17:25:53.147Z,77.14
2023-11-17T17:28:21.483Z,75.01
2023-11-17T17:30:49.212Z,79.08
2023-11-17T17:33:17.032Z,81.74
2023-11-17T17:35:46.533Z,83.65
2023-11-17T17:38:15.149Z,81.97
2023-11-17T17:40:44.156Z,80.04
2023-11-17T17:43:13.578Z,79.83
2023-11-17T17:45:44.509Z,80.13
2023-11-17T17:48:13.465Z,79.68
2023-11-17T17:50:41.321Z,77.68
2023-11-17T17:53:10.418Z,77.46
2023-11-17T17:55:38.311Z,82.32
2023-11-17T17:58:07.845Z,83.00
2023-11-17T18:00:35.804Z,85.86
2023-11-17T18:03:06.211Z,86.03
2023-11-17T18:05:34.512Z,84.87
2023-11-17T18:08:02.278Z,85.08
2023-11-17T18:10:32.916Z,84.29
2023-11-17T18:13:01.837Z,84.98
2023-11-17T18:15:29.881Z,83.49
2023-11-17T18:17:58.524Z,83.65
2023-11-17T18:20:28.572Z,82.10
2023-11-17T18:22:56.531Z,83.94
2023-11-17T18:25:25.032Z,85.88
2023-11-17T18:27:54.420Z,82.49
2023-11-17T18:30:24.099Z,82.83
2023-11-17T18:32:52.846Z,82.60
2023-11-17T18:35:23.817Z,85.50
2023-11-17T18:37:52.392Z,85.39
2023-11-17T18:40:25.041Z,84.91
2023-11-17T18:42:54.188Z,83.98
2023-11-17T18:45:22.722Z,86.99
2023-11-17T18:47:51.866Z,85.12
2023-11-17T18:50:21.659Z,86.65
2023-11-17T18:52:50.281Z,85.17
2023-11-17T18:55:19.211Z,84.72
2023-11-17T18:57:47.482Z,84.77
2023-11-17T19:00:20.685Z,84.07
2023-11-17T19:02:49.460Z,83.16
2023-11-17T19:05:19.087Z,81.98
2023-11-17T19:07:47.777Z,82.86
2023-11-17T19:10:16.088Z,82.09
2023-11-17T19:12:45.204Z,82.03
2023-11-17T19:15:13.706Z,81.17
2023-11-17T19:17:44.007Z,80.41
2023-11-17T19:20:13.281Z,84.54
2023-11-17T19:22:41.627Z,84.06
2023-11-17T19:25:10.783Z,82.30
2023-11-17T19:27:41.212Z,81.62
2023-11-17T19:30:15.893Z,81.85
2023-11-17T19:32:47.678Z,80.97
2023-11-17T19:35:16.713Z,79.97
2023-11-17T19:37:45.481Z,84.28
2023-11-17T19:40:15.672Z,85.90
2023-11-17T19:42:44.762Z,84.01
2023-11-17T19:45:16.491Z,85.32
2023-11-17T19:47:46.222Z,82.82
2023-11-17T19:50:18.380Z,83.46
2023-11-17T19:52:48.021Z,82.60
2023-11-17T19:55:16.397Z,80.78
2023-11-17T19:57:48.131Z,82.83
2023-11-17T20:00:24.245Z,83.64
2023-11-17T20:02:54.440Z,86.45
2023-11-17T20:05:24.234Z,85.86
2023-11-17T20:07:52.809Z,87.85
2023-11-17T20:10:20.870Z,86.13
2023-11-17T20:12:48.538Z,83.13
2023-11-17T20:15:16.612Z,83.04
2023-11-17T20:17:54.975Z,82.55
2023-11-17T20:20:27.953Z,84.22
2023-11-17T20:22:56.644Z,83.45
2023-11-17T20:25:25.518Z,81.70
2023-11-17T20:27:54.613Z,80.10
2023-11-17T20:30:23.381Z,81.08
2023-11-17T20:32:53.852Z,85.01
2023-11-17T20:35:24.808Z,83.65
2023-11-17T20:37:54.940Z,82.05
2023-11-17T20:40:25.131Z,81.43
2023-11-17T20:42:53.261Z,81.96
2023-11-17T20:45:22.887Z,85.21
2023-11-17T20:47:51.263Z,82.56
2023-11-17T20:50:21.633Z,81.08
2023-11-17T20:52:51.882Z,80.50
2023-11-17T20:55:22.587Z,81.88
2023-11-17T20:57:52.140Z,81.20
2023-11-17T21:00:22.794Z,82.23
2023-11-17T21:02:52.552Z,83.56
2023-11-17T21:05:21.132Z,84.01
2023-11-17T21:07:49.182Z,84.29
2023-11-17T21:10:19.750Z,85.41
2023-11-17T21:12:49.759Z,85.51
2023-11-17T21:15:19.282Z,84.73
2023-11-17T21:17:47.545Z,83.93
2023-11-17T21:20:18.166Z,82.55
2023-11-17T21:22:48.426Z,81.58
2023-11-17T21:25:18.772Z,81.27
2023-11-17T21:27:49.114Z,80.91
2023-11-17T21:30:18.756Z,83.79
2023-11-17T21:32:49.680Z,83.47
2023-11-17T21:35:19.452Z,83.33
2023-11-17T21:37:52.539Z,83.05
2023-11-17T21:40:22.211Z,82.89
2023-11-17T21:42:52.585Z,81.23
2023-11-17T21:45:22.615Z,81.54
2023-11-17T21:47:53.496Z,82.37
2023-11-17T21:50:23.087Z,83.02
2023-11-17T21:52:51.876Z,82.32
2023-11-17T21:55:20.020Z,81.99
2023-11-17T21:57:48.440Z,83.12
2023-11-17T22:00:19.481Z,83.34
2023-11-17T22:02:48.797Z,82.55
2023-11-17T22:05:19.039Z,83.93
2023-11-17T22:07:48.089Z,84.35
2023-11-17T22:10:15.894Z,84.34
2023-11-17T22:12:46.779Z,82.98
2023-11-17T22:15:15.500Z,83.44
2023-11-17T22:17:45.665Z,82.09
2023-11-17T22:20:15.134Z,82.69
2023-11-17T22:22:44.141Z,83.05
2023-11-17T22:25:13.136Z,82.51
2023-11-17T22:27:41.186Z,83.09
2023-11-17T22:30:13.730Z,82.91
2023-11-17T22:32:44.373Z,83.46
2023-11-17T22:35:13.629Z,83.48
2023-11-17T22:37:41.906Z,81.79
2023-11-17T22:40:13.483Z,82.18
2023-11-17T22:42:41.395Z,83.85
2023-11-17T22:45:10.126Z,84.65
2023-11-17T22:47:38.714Z,84.49
2023-11-17T22:50:14.230Z,84.43
2023-11-17T22:52:42.128Z,83.29
2023-11-17T22:55:10.737Z,85.17
2023-11-17T22:57:38.578Z,83.93
2023-11-17T23:00:15.919Z,83.70
2023-11-17T23:02:45.390Z,83.95
2023-11-17T23:05:14.906Z,83.23
2023-11-17T23:07:42.544Z,81.76
2023-11-17T23:10:13.695Z,82.93
2023-11-17T23:12:41.578Z,80.91
2023-11-17T23:15:11.134Z,81.16
2023-11-17T23:17:39.992Z,81.41
2023-11-17T23:20:12.186Z,82.23
2023-11-17T23:22:41.620Z,81.79
2023-11-17T23:25:13.763Z,80.96
2023-11-17T23:27:41.799Z,81.20
2023-11-17T23:30:10.857Z,81.78
2023-11-17T23:32:39.156Z,81.70
2023-11-17T23:35:07.347Z,82.01
2023-11-17T23:37:36.586Z,83.79
2023-11-17T23:40:09.731Z,83.15
2023-11-17T23:42:37.399Z,83.00
2023-11-17T23:45:06.756Z,82.80
2023-11-17T23:47:34.627Z,81.55
2023-11-17T23:50:02.448Z,81.35
2023-11-17T23:52:30.381Z,82.13
2023-11-17T23:54:58.063Z,83.14
2023-11-17T23:57:27.342Z,82.80
2023-11-17T23:59:55.013Z,84.28
